Terminal Aerodrome Forecast
Issued by NWS Pocatello, ID

Home | Current Version | Previous Version | Text Only | Print | Product List | Glossary On
Versions: 1 2 3 4 5 6 7 8 9 10 11 12 13 14 15 16 17 18 19
000
FTUS45 KPIH 251325 AAB
TAFPIH
TAF AMD
KPIH 251325Z 2513/2612 22012KT P6SM BKN025 OVC120
     FM252000 25015G24KT P6SM BKN035 BKN160
     FM260100 22010KT P6SM SCT060
     FM260600 22006KT P6SM SCT150=

USA.gov is the U.S. government's official web portal to all federal, state and local government web resources and services.